createdAt,value
2022-10-09T00:00:36.294Z,99876.22
2022-10-09T00:03:41.693Z,99874.38
2022-10-09T00:06:44.425Z,99866.66
2022-10-09T00:09:47.309Z,99869.00
2022-10-09T00:12:50.240Z,99857.47
2022-10-09T00:15:53.154Z,99860.28
2022-10-09T00:18:57.896Z,99859.94
2022-10-09T00:22:00.576Z,99857.94
2022-10-09T00:25:03.404Z,99853.25
2022-10-09T00:28:06.322Z,99849.75
2022-10-09T00:31:09.687Z,99853.63
2022-10-09T00:34:13.725Z,99849.44
2022-10-09T00:37:16.356Z,99847.16
2022-10-09T00:40:19.077Z,99842.00
2022-10-09T00:43:36.608Z,99848.81
2022-10-09T00:46:43.292Z,99836.88
2022-10-09T00:49:48.528Z,99835.13
2022-10-09T00:52:54.628Z,99827.78
2022-10-09T00:55:57.661Z,99828.56
2022-10-09T00:59:00.651Z,99823.66
2022-10-09T01:02:03.425Z,99815.09
2022-10-09T01:05:09.450Z,99812.94
2022-10-09T01:08:15.971Z,99812.88
2022-10-09T01:11:24.425Z,99810.06
2022-10-09T01:14:28.896Z,99813.34
2022-10-09T01:17:37.438Z,99812.34
2022-10-09T01:20:45.827Z,99803.47
2022-10-09T01:23:54.111Z,99809.50
2022-10-09T01:27:05.596Z,99812.56
2022-10-09T01:30:09.869Z,99804.91
2022-10-09T01:33:12.587Z,99795.28
2022-10-09T01:36:16.186Z,99798.81
2022-10-09T01:39:20.100Z,99797.13
2022-10-09T01:42:25.641Z,99787.19
2022-10-09T01:45:37.278Z,99798.25
2022-10-09T01:48:40.387Z,99793.78
2022-10-09T01:51:48.257Z,99793.06
2022-10-09T01:54:55.142Z,99793.31
2022-10-09T01:58:02.627Z,99793.53
2022-10-09T02:01:08.004Z,99793.38
2022-10-09T02:04:13.930Z,99784.97
2022-10-09T02:07:16.958Z,99798.66
2022-10-09T02:10:21.398Z,99788.88
2022-10-09T02:13:25.492Z,99799.16
2022-10-09T02:16:37.216Z,99796.47
2022-10-09T02:19:44.332Z,99799.94
2022-10-09T02:22:47.681Z,99795.25
2022-10-09T02:25:50.835Z,99790.06
2022-10-09T02:28:55.059Z,99789.69
2022-10-09T02:31:57.800Z,99784.22
2022-10-09T02:35:00.518Z,99779.13
2022-10-09T02:38:03.249Z,99783.31
2022-10-09T02:41:06.035Z,99782.59
2022-10-09T02:44:10.412Z,99786.63
2022-10-09T02:47:13.057Z,99788.31
2022-10-09T02:50:15.789Z,99787.09
2022-10-09T02:53:18.510Z,99794.00
2022-10-09T02:56:21.179Z,99787.78
2022-10-09T02:59:25.275Z,99784.41
2022-10-09T03:02:28.077Z,99781.34
2022-10-09T03:05:30.764Z,99778.53
2022-10-09T03:08:33.478Z,99779.22
2022-10-09T03:11:36.148Z,99771.34
2022-10-09T03:14:40.227Z,99773.03
2022-10-09T03:17:42.872Z,99776.38
2022-10-09T03:20:45.633Z,99775.69
2022-10-09T03:23:48.605Z,99774.09
2022-10-09T03:26:51.283Z,99766.44
2022-10-09T03:29:55.373Z,99767.00
2022-10-09T03:32:58.032Z,99769.19
2022-10-09T03:36:00.673Z,99764.44
2022-10-09T03:39:03.391Z,99767.84
2022-10-09T03:42:06.100Z,99762.94
2022-10-09T03:45:10.988Z,99761.88
2022-10-09T03:48:14.216Z,99755.22
2022-10-09T03:51:16.919Z,99754.69
2022-10-09T03:54:19.602Z,99757.06
2022-10-09T03:57:22.589Z,99752.00
2022-10-09T04:00:26.882Z,99747.81
2022-10-09T04:03:29.587Z,99745.81
2022-10-09T04:06:32.268Z,99741.13
2022-10-09T04:09:34.941Z,99745.66
2022-10-09T04:12:37.808Z,99746.81
2022-10-09T04:15:41.887Z,99736.25
2022-10-09T04:18:45.300Z,99746.47
2022-10-09T04:21:47.902Z,99738.31
2022-10-09T04:24:50.639Z,99733.94
2022-10-09T04:27:53.268Z,99737.69
2022-10-09T04:30:58.246Z,99737.78
2022-10-09T04:34:00.937Z,99735.84
2022-10-09T04:37:03.653Z,99735.09
2022-10-09T04:40:06.709Z,99741.19
2022-10-09T04:43:09.415Z,99739.69
2022-10-09T04:46:14.875Z,99740.06
2022-10-09T04:49:17.550Z,99740.13
2022-10-09T04:52:20.180Z,99736.84
2022-10-09T04:55:22.916Z,99735.59
2022-10-09T04:58:25.599Z,99740.16
2022-10-09T05:01:33.082Z,99730.34
2022-10-09T05:04:39.904Z,99736.16
2022-10-09T05:07:42.550Z,99746.09
2022-10-09T05:10:45.236Z,99744.59
2022-10-09T05:13:49.220Z,99748.81
2022-10-09T05:17:13.218Z,99748.50
2022-10-09T05:20:16.185Z,99745.66
2022-10-09T05:23:18.888Z,99748.41
2022-10-09T05:26:22.810Z,99751.94
2022-10-09T05:29:25.489Z,99739.31
2022-10-09T05:32:29.538Z,99750.19
2022-10-09T05:35:32.171Z,99758.00
2022-10-09T05:38:35.221Z,99744.97
2022-10-09T05:41:37.858Z,99752.09
2022-10-09T05:44:40.611Z,99754.47
2022-10-09T05:47:44.603Z,99745.69
2022-10-09T05:50:47.518Z,99743.91
2022-10-09T05:53:50.143Z,99745.66
2022-10-09T05:56:52.850Z,99736.47
2022-10-09T05:59:55.527Z,99740.03
2022-10-09T06:02:59.584Z,99736.47
2022-10-09T06:06:02.623Z,99733.13
2022-10-09T06:09:05.999Z,99736.09
2022-10-09T06:12:08.766Z,99740.31
2022-10-09T06:15:11.764Z,99735.19
2022-10-09T06:18:15.772Z,99734.97
2022-10-09T06:21:18.379Z,99726.78
2022-10-09T06:24:27.862Z,99725.63
2022-10-09T06:27:31.367Z,99726.63
2022-10-09T06:30:38.514Z,99726.00
2022-10-09T06:33:43.779Z,99722.34
2022-10-09T06:36:46.491Z,99729.47
2022-10-09T06:39:49.132Z,99713.31
2022-10-09T06:42:52.203Z,99721.88
2022-10-09T06:45:54.966Z,99712.06
2022-10-09T06:48:59.745Z,99716.03
2022-10-09T06:52:02.481Z,99710.38
2022-10-09T06:55:05.523Z,99701.38
2022-10-09T06:58:08.216Z,99698.00
2022-10-09T07:01:12.082Z,99693.94
2022-10-09T07:04:17.799Z,99689.94
2022-10-09T07:07:20.470Z,99688.59
2022-10-09T07:10:25.337Z,99680.16
2022-10-09T07:13:30.395Z,99679.63
2022-10-09T07:16:34.494Z,99663.38
2022-10-09T07:19:38.629Z,99665.56
2022-10-09T07:22:41.295Z,99662.22
2022-10-09T07:25:44.025Z,99655.00
2022-10-09T07:28:46.977Z,99652.84
2022-10-09T07:31:49.937Z,99647.59
2022-10-09T07:34:54.041Z,99647.88
2022-10-09T07:37:56.723Z,99639.63
2022-10-09T07:41:00.884Z,99644.03
2022-10-09T07:44:03.649Z,99633.44
2022-10-09T07:47:06.775Z,99640.31
2022-10-09T07:50:11.006Z,99632.59
2022-10-09T07:53:13.682Z,99621.09
2022-10-09T07:56:16.897Z,99614.22
2022-10-09T07:59:19.563Z,99614.06
2022-10-09T08:02:22.298Z,99604.66
2022-10-09T08:05:26.395Z,99601.00
2022-10-09T08:08:29.069Z,99597.00
2022-10-09T08:11:32.522Z,99589.50
2022-10-09T08:14:35.345Z,99587.31
2022-10-09T08:17:37.989Z,99587.00
2022-10-09T08:20:42.106Z,99595.69
2022-10-09T08:23:45.052Z,99589.00
2022-10-09T08:26:47.718Z,99583.50
2022-10-09T08:29:50.421Z,99587.22
2022-10-09T08:32:53.052Z,99587.06
2022-10-09T08:36:05.915Z,99584.38
2022-10-09T08:39:08.593Z,99584.06
2022-10-09T08:42:17.468Z,99583.38
2022-10-09T08:45:20.582Z,99572.22
2022-10-09T08:48:24.957Z,99572.22
2022-10-09T08:51:30.711Z,99566.47
2022-10-09T08:54:35.533Z,99558.97
2022-10-09T08:57:38.227Z,99562.66
2022-10-09T09:00:45.116Z,99563.56
2022-10-09T09:03:54.459Z,99562.72
2022-10-09T09:07:02.423Z,99560.81
2022-10-09T09:10:12.281Z,99554.09
2022-10-09T09:13:20.495Z,99559.97
2022-10-09T09:16:26.217Z,99553.91
2022-10-09T09:19:43.981Z,99550.25
2022-10-09T09:22:49.524Z,99553.59
2022-10-09T09:25:52.436Z,99565.03
2022-10-09T09:28:59.456Z,99561.78
2022-10-09T09:32:02.282Z,99559.19
2022-10-09T09:35:09.528Z,99557.00
2022-10-09T09:38:13.553Z,99556.13
2022-10-09T09:41:16.172Z,99563.16
2022-10-09T09:44:19.991Z,99560.47
2022-10-09T09:47:26.928Z,99553.44
2022-10-09T09:50:46.982Z,99542.88
2022-10-09T09:53:56.097Z,99544.56
2022-10-09T09:57:12.853Z,99545.28
2022-10-09T10:00:21.756Z,99539.34
2022-10-09T10:03:25.053Z,99532.69
2022-10-09T10:06:30.880Z,99533.03
2022-10-09T10:09:34.904Z,99537.16
2022-10-09T10:12:41.024Z,99532.91
2022-10-09T10:15:49.609Z,99523.53
2022-10-09T10:18:52.719Z,99517.91
2022-10-09T10:21:59.310Z,99520.16
2022-10-09T10:25:03.482Z,99518.41
2022-10-09T10:28:08.765Z,99515.25
2022-10-09T10:31:16.764Z,99513.50
2022-10-09T10:34:22.250Z,99502.47
2022-10-09T10:37:29.078Z,99495.44
2022-10-09T10:40:34.531Z,99489.09
2022-10-09T10:43:40.186Z,99477.72
2022-10-09T10:46:49.045Z,99484.59
2022-10-09T10:49:52.111Z,99481.06
2022-10-09T10:53:00.907Z,99478.72
2022-10-09T10:56:07.141Z,99478.19
2022-10-09T10:59:30.860Z,99477.03
2022-10-09T11:03:00.675Z,99469.31
2022-10-09T11:06:06.410Z,99461.13
2022-10-09T11:09:14.124Z,99462.47
2022-10-09T11:12:43.277Z,99452.25
2022-10-09T11:15:51.073Z,99454.94
2022-10-09T11:19:01.552Z,99447.91
2022-10-09T11:22:11.044Z,99439.19
2022-10-09T11:25:26.365Z,99448.91
2022-10-09T11:28:32.008Z,99453.41
2022-10-09T11:31:37.667Z,99441.03
2022-10-09T11:34:42.423Z,99438.88
2022-10-09T11:37:48.905Z,99430.63
2022-10-09T11:40:52.008Z,99435.00
2022-10-09T11:44:02.894Z,99439.34
2022-10-09T11:47:11.252Z,99424.63
2022-10-09T11:50:28.039Z,99425.09
2022-10-09T11:53:34.447Z,99428.78
2022-10-09T11:56:37.254Z,99427.44
2022-10-09T11:59:42.705Z,99431.31
2022-10-09T12:02:45.526Z,99423.72
2022-10-09T12:05:50.517Z,99423.91
2022-10-09T12:08:56.435Z,99428.78
2022-10-09T12:12:01.506Z,99418.75
2022-10-09T12:15:12.909Z,99430.13
2022-10-09T12:18:17.798Z,99420.59
2022-10-09T12:21:24.456Z,99403.31
2022-10-09T12:24:28.029Z,99415.88
2022-10-09T12:27:34.885Z,99412.19
2022-10-09T12:30:46.632Z,99412.72
2022-10-09T12:33:52.672Z,99408.34
2022-10-09T12:37:04.599Z,99410.88
2022-10-09T12:40:08.524Z,99402.66
2022-10-09T12:43:11.247Z,99404.66
2022-10-09T12:46:15.425Z,99397.28
2022-10-09T12:49:20.355Z,99402.97
2022-10-09T12:52:23.066Z,99407.19
2022-10-09T12:55:27.608Z,99401.66
2022-10-09T12:58:31.817Z,99407.69
2022-10-09T13:01:36.652Z,99395.78
2022-10-09T13:04:39.515Z,99403.00
2022-10-09T13:07:46.481Z,99404.84
2022-10-09T13:10:51.125Z,99393.97
2022-10-09T13:13:54.751Z,99388.09
2022-10-09T13:16:58.914Z,99391.28
2022-10-09T13:20:02.903Z,99398.81
2022-10-09T13:23:07.126Z,99387.44
2022-10-09T13:26:14.182Z,99387.91
2022-10-09T13:29:16.890Z,99386.91
2022-10-09T13:32:22.845Z,99376.53
2022-10-09T13:35:25.538Z,99365.47
2022-10-09T13:38:31.368Z,99371.19
2022-10-09T13:41:37.921Z,99377.53
2022-10-09T13:44:40.782Z,99375.19
2022-10-09T13:47:44.831Z,99374.69
2022-10-09T13:50:47.580Z,99375.19
2022-10-09T13:53:50.741Z,99367.31
2022-10-09T13:56:53.522Z,99376.50
2022-10-09T13:59:56.208Z,99371.47
2022-10-09T14:03:00.296Z,99374.31
2022-10-09T14:06:04.113Z,99368.59
2022-10-09T14:09:06.854Z,99366.31
2022-10-09T14:12:09.551Z,99368.28
2022-10-09T14:15:12.336Z,99373.53
2022-10-09T14:18:16.343Z,99366.25
2022-10-09T14:21:18.991Z,99364.09
2022-10-09T14:24:21.690Z,99370.28
2022-10-09T14:27:24.399Z,99370.31
2022-10-09T14:30:27.303Z,99366.31
2022-10-09T14:33:31.288Z,99366.13
2022-10-09T14:36:33.981Z,99369.50
2022-10-09T14:39:36.644Z,99379.56
2022-10-09T14:42:39.863Z,99370.44
2022-10-09T14:48:54.628Z,99376.03
2022-10-09T14:51:58.499Z,99372.94
2022-10-09T14:55:01.204Z,99379.13
2022-10-09T14:58:03.892Z,99379.00
2022-10-09T15:01:07.382Z,99373.78
2022-10-09T15:04:11.555Z,99381.78
2022-10-09T15:07:14.383Z,99388.81
2022-10-09T15:10:17.089Z,99394.34
2022-10-09T15:13:20.031Z,99394.69
2022-10-09T15:16:23.104Z,99391.66
2022-10-09T15:19:27.186Z,99398.66
2022-10-09T15:22:29.894Z,99405.66
2022-10-09T15:27:32.592Z,99390.91
2022-10-09T15:30:35.334Z,99396.63
2022-10-09T15:33:38.092Z,99393.13
2022-10-09T15:36:43.132Z,99393.47
2022-10-09T15:39:46.418Z,99395.31
2022-10-09T15:42:50.857Z,99399.66
2022-10-09T15:45:55.175Z,99404.84
2022-10-09T15:48:57.911Z,99408.91
2022-10-09T15:52:02.292Z,99412.25
2022-10-09T15:55:05.543Z,99408.56
2022-10-09T15:58:09.668Z,99410.41
2022-10-09T16:01:13.419Z,99411.03
2022-10-09T16:04:16.693Z,99409.19
2022-10-09T16:07:19.373Z,99417.56
2022-10-09T16:10:22.182Z,99416.72
2022-10-09T16:13:26.818Z,99419.03
2022-10-09T16:16:29.634Z,99417.41
2022-10-09T16:19:32.297Z,99421.75
2022-10-09T16:22:34.978Z,99413.53
2022-10-09T16:25:38.396Z,99416.91
2022-10-09T16:28:43.308Z,99416.59
2022-10-09T16:31:46.086Z,99417.75
2022-10-09T16:34:49.764Z,99418.75
2022-10-09T16:37:53.077Z,99416.91
2022-10-09T16:41:02.983Z,99416.22
2022-10-09T16:44:12.117Z,99416.75
2022-10-09T16:47:14.789Z,99415.22
2022-10-09T16:50:17.538Z,99413.53
2022-10-09T16:53:20.362Z,99411.88
2022-10-09T16:56:23.776Z,99417.13
2022-10-09T16:59:27.790Z,99415.59
2022-10-09T17:02:30.464Z,99409.41
2022-10-09T17:05:33.140Z,99408.22
2022-10-09T17:08:35.828Z,99407.75
2022-10-09T17:11:38.720Z,99406.34
2022-10-09T17:14:42.811Z,99393.13
2022-10-09T17:17:45.559Z,99396.28
2022-10-09T17:20:48.472Z,99404.84
2022-10-09T17:23:54.325Z,99392.47
2022-10-09T17:26:57.163Z,99400.34
2022-10-09T17:30:01.234Z,99401.81
2022-10-09T17:33:03.922Z,99398.66
2022-10-09T17:36:06.809Z,99398.94
2022-10-09T17:39:10.655Z,99404.47
2022-10-09T17:42:13.305Z,99404.81
2022-10-09T17:45:17.455Z,99406.28
2022-10-09T17:48:20.512Z,99404.75
2022-10-09T17:51:25.462Z,99406.94
2022-10-09T17:54:28.237Z,99403.78
2022-10-09T17:57:31.023Z,99412.59
2022-10-09T18:00:37.743Z,99401.91
2022-10-09T18:03:40.603Z,99409.25
2022-10-09T18:06:43.422Z,99407.63
2022-10-09T18:15:23.444Z,99407.97
2022-10-09T18:18:26.664Z,99400.97
2022-10-09T18:21:29.448Z,99411.31
2022-10-09T18:24:32.205Z,99417.22
2022-10-09T18:27:35.325Z,99412.03
2022-10-09T18:30:46.040Z,99407.16
2022-10-09T18:33:48.822Z,99407.16
2022-10-09T18:36:52.290Z,99401.66
2022-10-09T18:39:55.256Z,99394.31
2022-10-09T18:42:58.236Z,99392.78
2022-10-09T18:46:02.631Z,99399.66
2022-10-09T18:49:09.297Z,99400.78
2022-10-09T18:52:12.911Z,99395.28
2022-10-09T18:55:17.839Z,99393.47
2022-10-09T18:58:22.061Z,99391.44
2022-10-09T19:01:26.263Z,99385.75
2022-10-09T19:04:29.013Z,99389.00
2022-10-09T19:07:32.036Z,99386.13
2022-10-09T19:10:34.752Z,99386.75
2022-10-09T19:13:37.463Z,99389.09
2022-10-09T19:21:44.955Z,99392.78
2022-10-09T19:24:47.673Z,99398.03
2022-10-09T19:27:50.744Z,99401.50
2022-10-09T19:30:53.533Z,99393.63
2022-10-09T19:33:56.362Z,99395.63
2022-10-09T19:37:00.422Z,99388.63
2022-10-09T19:40:03.170Z,99386.13
2022-10-09T19:43:06.097Z,99383.63
2022-10-09T19:46:10.118Z,99378.09
2022-10-09T19:49:12.864Z,99382.97
2022-10-09T19:52:16.938Z,99377.47
2022-10-09T19:55:19.925Z,99385.63
2022-10-09T19:58:22.678Z,99382.97
2022-10-09T20:01:26.724Z,99386.75
2022-10-09T20:04:29.459Z,99374.13
2022-10-09T20:07:33.518Z,99377.81
2022-10-09T20:10:36.672Z,99367.59
2022-10-09T20:13:40.324Z,99358.22
2022-10-09T20:16:43.061Z,99359.91
2022-10-09T20:19:45.944Z,99366.09
2022-10-09T20:22:52.770Z,99356.41
2022-10-09T20:25:59.974Z,99355.22
2022-10-09T20:29:02.865Z,99356.41
2022-10-09T20:32:05.656Z,99361.41
2022-10-09T20:35:08.974Z,99358.06
2022-10-09T20:38:13.013Z,99349.03
2022-10-09T20:41:15.963Z,99348.06
2022-10-09T20:44:18.681Z,99356.09
2022-10-09T20:47:21.385Z,99344.50
2022-10-09T20:50:24.038Z,99351.72
2022-10-09T20:53:28.153Z,99341.00
2022-10-09T20:56:31.585Z,99338.16
2022-10-09T20:59:34.255Z,99332.31
2022-10-09T21:02:36.916Z,99326.94
2022-10-09T21:05:43.290Z,99325.09
2022-10-09T21:08:47.367Z,99329.31
2022-10-09T21:11:50.719Z,99321.94
2022-10-09T21:14:53.424Z,99318.25
2022-10-09T21:17:56.120Z,99325.31
2022-10-09T21:20:58.844Z,99310.06
2022-10-09T21:24:03.171Z,99304.72
2022-10-09T21:27:05.958Z,99299.38
2022-10-09T21:30:09.209Z,99299.03
2022-10-09T21:33:12.392Z,99306.91
2022-10-09T21:36:20.958Z,99298.22
2022-10-09T21:39:25.130Z,99296.84
2022-10-09T21:42:27.779Z,99295.19
2022-10-09T21:45:30.494Z,99298.88
2022-10-09T21:48:33.210Z,99288.47
2022-10-09T21:51:35.856Z,99286.13
2022-10-09T21:54:39.958Z,99284.44
2022-10-09T21:57:45.124Z,99288.97
2022-10-09T22:00:48.018Z,99291.13
2022-10-09T22:03:50.739Z,99293.31
2022-10-09T22:06:53.364Z,99285.47
2022-10-09T22:09:57.458Z,99291.47
2022-10-09T22:13:00.203Z,99293.50
2022-10-09T22:16:05.503Z,99284.44
2022-10-09T22:19:08.209Z,99284.44
2022-10-09T22:22:11.070Z,99276.09
2022-10-09T22:25:15.275Z,99277.91
2022-10-09T22:28:18.017Z,99289.28
2022-10-09T22:31:21.555Z,99294.16
2022-10-09T22:34:24.185Z,99292.34
2022-10-09T22:37:26.959Z,99286.13
2022-10-09T22:40:31.055Z,99287.97
2022-10-09T22:43:33.715Z,99287.81
2022-10-09T22:46:37.458Z,99284.13
2022-10-09T22:49:40.228Z,99286.13
2022-10-09T22:52:42.888Z,99288.47
2022-10-09T22:55:46.947Z,99288.47
2022-10-09T22:58:49.990Z,99294.16
2022-10-09T23:01:54.341Z,99292.34
2022-10-09T23:04:57.107Z,99295.47
2022-10-09T23:07:59.802Z,99298.00
2022-10-09T23:11:03.833Z,99296.19
2022-10-09T23:14:06.727Z,99293.31
2022-10-09T23:17:09.367Z,99291.78
2022-10-09T23:20:11.997Z,99289.13
2022-10-09T23:23:14.774Z,99288.28
2022-10-09T23:26:19.841Z,99285.97
2022-10-09T23:29:22.559Z,99297.84
2022-10-09T23:32:25.267Z,99291.31
2022-10-09T23:35:27.964Z,99296.84
2022-10-09T23:38:30.636Z,99292.50
2022-10-09T23:41:35.250Z,99290.81
2022-10-09T23:44:37.958Z,99292.31
2022-10-09T23:47:40.636Z,99293.47
2022-10-09T23:50:43.330Z,99290.66
2022-10-09T23:53:46.330Z,99286.78
2022-10-09T23:56:50.365Z,99283.28
2022-10-09T23:59:53.079Z,99290.47
